Latest Weather Observations for Cape Wessel

IDD60801

Issued at 3:01 pm CST Sunday 26 February 2017 (issued every 30 minutes, with the page automatically refreshed every 10 minutes)

About weather observations | Map of weather stations | Latest weather observations for NT | Other Formats
Station Details ID: 200786 Name: CAPE WESSEL Lat: -11.00 Lon: 136.76 Height: 18.0 m
Data from the previous 72 hours. | See also: Recent months at Cape Wessel
Date/Time
CST
Temp
°C
App
Temp
°C
Dew
Point
°C
Rel
Hum
%
Delta-T
°C
Wind Press
QNH
hPa
Press
MSL
hPa
Rain since
9am
mm
Dir  Spd
km/h
Gust
km/h
Spd
kts
Gust
kts
26/03:00pm 32.2 35.0 24.3 63 5.5 ENE 17 20 9 11 1006.2 1006.1 0.0
26/02:30pm 32.0 34.7 24.1 63 5.5 ENE 17 22 9 12 1006.1 1006.0 0.0
26/02:00pm 32.2 35.1 24.5 64 5.4 ENE 17 20 9 11 1006.5 1006.4 0.0
26/01:30pm 32.7 36.4 25.2 64 5.3 E 15 20 8 11 1006.7 1006.6 0.0
26/01:00pm 32.5 35.9 25.3 66 5.1 E 17 20 9 11 1007.2 1007.1 0.0
26/12:30pm 31.9 35.3 24.7 65 5.1 E 15 20 8 11 1007.4 1007.3 0.0
26/12:00pm 31.9 35.1 25.0 67 4.9 ESE 17 20 9 11 1007.7 1007.6 0.0
26/11:30am 31.6 35.1 25.5 70 4.3 ESE 17 20 9 11 1007.9 1007.8 0.0
26/11:00am 30.4 33.8 25.2 74 3.7 ESE 17 20 9 11 1008.2 1008.1 0.0
26/10:30am 29.5 32.7 25.0 77 3.2 ESE 17 20 9 11 1008.3 1008.2 0.0
26/10:00am 29.1 32.0 24.4 76 3.3 ESE 17 20 9 11 1008.5 1008.4 0.0
26/09:30am 30.0 34.3 25.5 77 3.2 ESE 13 17 7 9 1008.5 1008.4 0.0
26/09:00am 29.2 32.8 25.0 78 3.0 SE 15 19 8 10 1008.6 1008.5 1.2
26/08:30am 28.9 32.7 24.7 78 2.9 ESE 13 17 7 9 1008.5 1008.4 1.2
26/08:00am 28.2 32.2 25.0 83 2.2 ESE 13 17 7 9 1008.4 1008.3 1.2
26/07:30am 27.0 31.7 25.0 89 1.4 E 9 11 5 6 1008.0 1007.9 1.2
26/07:00am 26.0 31.0 24.8 93 0.8 E 7 9 4 5 1007.8 1007.7 1.2
26/06:30am 25.7 30.0 24.3 92 1.0 ENE 9 9 5 5 1007.5 1007.4 1.2
26/06:00am 25.5 29.7 24.1 92 1.0 SW 9 11 5 6 1007.3 1007.2 1.2
26/05:30am 25.6 29.5 24.2 92 1.0 SSW 11 13 6 7 1006.9 1006.8 1.2
26/05:00am 25.8 29.9 24.6 93 0.8 SSW 11 13 6 7 1006.8 1006.7 1.2
26/04:30am 25.9 30.1 24.7 93 0.8 SW 11 15 6 8 1006.8 1006.7 1.2
26/04:00am 25.9 30.2 24.9 94 0.7 SW 11 13 6 7 1006.7 1006.6 1.2
26/03:30am 26.1 30.4 24.9 93 0.8 SSW 11 11 6 6 1006.5 1006.4 1.2
26/03:00am 26.3 31.5 25.1 93 0.8 SW 7 9 4 5 1006.6 1006.5 1.2
26/02:30am 26.3 31.1 25.1 93 0.8 SW 9 9 5 5 1007.0 1006.9 1.2
26/02:00am 26.4 31.7 25.2 93 0.8 SW 7 7 4 4 1007.5 1007.4 1.2
26/01:30am 26.5 31.6 25.5 94 0.7 SW 9 11 5 6 1007.9 1007.8 1.2
26/01:00am 26.4 30.9 25.2 93 0.8 SW 11 11 6 6 1008.0 1007.9 1.2
26/12:30am 26.3 30.9 24.7 91 1.1 SW 9 9 5 5 1008.2 1008.1 1.2
26/12:00am 26.5 30.4 24.9 91 1.1 SSW 13 15 7 8 1008.7 1008.6 1.2
 
Date/Time
CST
Temp
°C
App
Temp
°C
Dew
Point
°C
Rel
Hum
%
Delta-T
°C
Wind Press
QNH
hPa
Press
MSL
hPa
Rain since
9am
mm
Dir  Spd
km/h
Gust
km/h
Spd
kts
Gust
kts
25/11:30pm 26.5 30.7 24.7 90 1.3 SSW 11 13 6 7 1009.0 1008.9 1.2
25/11:00pm 26.5 30.2 24.5 89 1.4 SSW 13 15 7 8 1009.1 1009.0 1.2
25/10:30pm 26.2 30.0 24.1 88 1.4 SSW 11 11 6 6 1008.9 1008.8 1.2
25/10:00pm 26.3 30.7 23.4 84 2.0 SW 6 9 3 5 1008.7 1008.6 1.2
25/09:30pm 26.4 30.2 23.5 84 2.0 WSW 9 9 5 5 1008.6 1008.5 1.2
25/09:00pm 26.4 31.7 23.1 82 2.2 CALM 0 0 0 0 1008.5 1008.4 1.2
25/08:30pm 26.6 30.8 23.1 81 2.4 NE 6 6 3 3 1008.1 1008.0 1.2
25/08:00pm 26.7 30.8 23.2 81 2.4 NE 7 9 4 5 1008.0 1007.9 1.2
25/07:30pm 26.9 31.1 23.4 81 2.4 NE 7 9 4 5 1008.0 1007.9 1.2
25/07:00pm 27.3 31.8 23.7 81 2.5 NNE 6 9 3 5 1007.9 1007.8 1.2
25/06:30pm 28.0 33.0 23.8 78 2.9 NNE 4 7 2 4 1007.7 1007.6 1.2
25/06:00pm 28.6 33.3 23.9 75 3.3 NNE 6 9 3 5 1007.4 1007.3 1.2
25/05:30pm 29.0 32.8 24.1 75 3.4 NW 11 15 6 8 1007.1 1007.0 1.2
25/05:00pm 29.3 33.3 23.7 72 3.9 N 9 11 5 6 1006.9 1006.8 1.2
25/04:30pm 29.4 33.4 23.8 72 3.9 NNW 9 11 5 6 1007.0 1006.9 1.2
25/04:00pm 30.1 34.0 24.3 71 4.0 NNW 11 15 6 8 1007.2 1007.1 1.2
25/03:30pm 29.8 34.4 24.2 72 3.9 NE 7 11 4 6 1007.6 1007.5 1.2
25/03:00pm 29.5 31.9 23.7 71 4.0 ESE 17 22 9 12 1008.3 1008.2 1.2
25/02:30pm 29.8 31.3 23.7 70 4.2 SE 22 26 12 14 1008.9 1008.8 1.2
25/02:00pm 31.6 34.6 25.2 69 4.5 SE 19 28 10 15 1008.9 1008.8 1.2
25/01:30pm 29.7 32.1 24.6 74 3.6 SE 20 28 11 15 1009.3 1009.2 1.0
25/01:00pm 30.4 33.3 25.9 77 3.2 SSE 22 28 12 15 1009.6 1009.5 1.0
25/12:30pm 29.5 34.6 26.1 82 2.4 ESE 11 15 6 8 1009.4 1009.3 1.0
25/12:00pm 29.3 32.2 24.4 75 3.4 WNW 17 22 9 12 1009.8 1009.7 0.0
25/11:30am 29.8 31.7 24.4 73 3.8 NW 22 28 12 15 1010.8 1010.7 0.0
25/11:00am 28.8 30.6 22.5 68 4.3 NW 17 28 9 15 1011.3 1011.2 0.0
25/10:30am 30.5 34.3 25.3 74 3.7 ESE 15 19 8 10 1011.4 1011.3 0.0
25/10:00am 30.7 34.4 25.1 72 3.9 SSE 15 19 8 10 1011.3 1011.2 0.0
25/09:30am 31.5 35.6 25.8 72 4.1 SSE 15 20 8 11 1011.2 1011.1 0.0
25/09:00am 30.5 35.4 25.3 74 3.7 SE 9 13 5 7 1010.8 1010.7 0.0
25/08:30am 29.8 34.1 23.7 70 4.2 W 7 11 4 6 1010.8 1010.7 0.0
25/08:00am 28.4 31.4 22.6 71 3.9 WSW 11 17 6 9 1010.6 1010.5 0.0
25/07:30am 27.4 29.9 23.2 78 2.9 SSW 15 17 8 9 1010.2 1010.1 0.0
25/07:00am 26.7 30.5 24.0 85 1.9 S 11 15 6 8 1010.2 1010.1 0.0
25/06:30am 26.0 28.5 23.1 84 2.0 SSW 15 19 8 10 1010.1 1010.0 0.0
25/06:00am 26.3 30.2 24.3 89 1.4 WSW 11 15 6 8 1009.8 1009.7 0.0
25/05:30am 26.2 30.9 25.0 93 0.8 SSW 9 11 5 6 1009.2 1009.1 0.0
25/05:00am 26.2 30.8 24.8 92 1.0 SSW 9 9 5 5 1009.2 1009.1 0.0
25/04:30am 26.2 30.8 24.8 92 1.0 SSW 9 11 5 6 1009.2 1009.1 0.0
25/04:00am 26.5 30.9 25.1 92 1.0 S 11 13 6 7 1009.1 1009.0 0.0
25/03:30am 26.4 30.6 24.8 91 1.1 SSW 11 11 6 6 1009.1 1009.0 0.0
25/03:00am 26.4 30.9 24.6 90 1.3 SSW 9 11 5 6 1008.8 1008.7 0.0
25/02:30am 26.4 30.2 24.1 87 1.6 SSW 11 11 6 6 1008.9 1008.8 0.0
25/02:00am 26.9 31.3 24.4 86 1.7 S 9 11 5 6 1009.3 1009.2 0.0
25/01:30am 27.5 31.2 24.6 84 2.0 S 13 15 7 8 1009.5 1009.4 0.0
25/01:00am 27.7 31.1 24.7 84 2.1 S 15 19 8 10 1009.6 1009.5 0.0
25/12:30am 27.8 31.4 25.0 85 2.0 SSE 15 19 8 10 1010.3 1010.2 0.0
25/12:00am 27.7 31.7 25.1 86 1.8 SSE 13 17 7 9 1010.5 1010.4 0.0
 
Date/Time
CST
Temp
°C
App
Temp
°C
Dew
Point
°C
Rel
Hum
%
Delta-T
°C
Wind Press
QNH
hPa
Press
MSL
hPa
Rain since
9am
mm
Dir  Spd
km/h
Gust
km/h
Spd
kts
Gust
kts
24/11:30pm 27.6 32.0 25.0 86 1.8 S 11 13 6 7 1010.7 1010.6 0.0
24/11:00pm 27.5 31.7 24.7 85 1.9 S 11 13 6 7 1011.0 1010.9 0.0
24/10:30pm 27.1 30.9 24.0 83 2.1 S 11 13 6 7 1011.0 1010.9 0.0
24/10:00pm 27.3 31.9 24.2 83 2.1 SSW 7 9 4 5 1011.2 1011.1 0.0
24/09:30pm 27.4 31.6 24.1 82 2.3 S 9 11 5 6 1010.7 1010.6 0.0
24/09:00pm 27.9 31.8 24.3 81 2.5 S 11 15 6 8 1010.4 1010.3 0.0
24/08:30pm 27.9 31.3 24.1 80 2.6 SE 13 15 7 8 1010.3 1010.2 0.0
24/08:00pm 27.4 31.3 23.6 80 2.6 SE 9 11 5 6 1010.0 1009.9 0.0
24/07:30pm 27.7 32.1 23.5 78 2.9 ENE 6 9 3 5 1009.5 1009.4 0.0
24/07:00pm 28.1 31.9 23.5 76 3.2 E 9 11 5 6 1009.0 1008.9 0.0
24/06:30pm 29.1 33.1 23.8 73 3.7 E 9 11 5 6 1008.8 1008.7 0.0
24/06:00pm 30.0 34.6 24.2 71 4.0 NE 7 11 4 6 1008.5 1008.4 0.0
24/05:30pm 30.1 33.4 23.8 69 4.4 ESE 13 15 7 8 1008.9 1008.8 0.0
24/05:00pm 31.3 35.5 24.7 68 4.6 E 11 15 6 8 1009.0 1008.9 0.0
24/04:30pm 30.9 34.8 24.3 68 4.6 ENE 11 13 6 7 1008.8 1008.7 0.0
24/04:00pm 31.9 35.8 24.2 63 5.4 ENE 11 15 6 8 1008.8 1008.7 0.0
24/03:30pm 31.9 35.8 24.2 63 5.4 ENE 11 15 6 8 1009.0 1008.9 0.0
24/03:00pm 32.3 36.2 24.9 65 5.2 E 13 15 7 8 1009.4 1009.3 0.0
24/02:30pm 32.8 37.5 25.6 66 5.1 E 11 17 6 9 1009.6 1009.5 0.0
24/02:00pm 32.6 37.6 25.4 66 5.1 ESE 9 15 5 8 1009.9 1009.8 0.0
24/01:30pm 32.4 36.4 25.0 65 5.2 ESE 13 17 7 9 1010.2 1010.1 0.0
24/01:00pm 32.5 36.7 25.3 66 5.1 ESE 13 17 7 9 1010.7 1010.6 0.0
24/12:30pm 32.4 36.5 25.2 66 5.1 E 13 19 7 10 1011.2 1011.1 0.0
24/12:00pm 32.4 36.5 25.2 66 5.1 ESE 13 17 7 9 1011.8 1011.7 0.0
24/11:30am 32.4 36.5 25.2 66 5.1 ESE 13 19 7 10 1012.1 1012.0 0.0
24/11:00am 32.0 35.9 24.8 65 5.1 ESE 13 17 7 9 1012.3 1012.2 0.0
24/10:30am 31.4 35.5 24.5 67 4.8 E 11 13 6 7 1012.6 1012.5 0.0
24/10:00am 31.8 36.4 25.4 69 4.5 E 11 15 6 8 1012.8 1012.7 0.0
24/09:30am 31.1 35.8 25.0 70 4.3 ESE 9 13 5 7 1012.7 1012.6 0.0
24/09:00am 30.8 35.4 24.7 70 4.3 E 9 11 5 6 1012.5 1012.4 0.0
24/08:30am 30.3 34.7 24.4 70 4.1 E 9 13 5 7 1012.3 1012.2 0.0
24/08:00am 29.8 34.1 24.9 75 3.4 E 11 13 6 7 1012.1 1012.0 0.0
24/07:30am 29.1 33.7 25.3 80 2.7 E 11 13 6 7 1011.7 1011.6 0.0
24/07:00am 27.6 32.3 25.0 86 1.8 ESE 9 13 5 7 1011.4 1011.3 0.0
24/06:30am 26.5 30.4 24.2 87 1.6 ENE 11 13 6 7 1010.8 1010.7 0.0
24/06:00am 26.5 30.8 24.2 87 1.6 E 9 11 5 6 1010.7 1010.6 0.0
24/05:30am 26.6 30.8 24.1 86 1.7 ESE 9 11 5 6 1010.4 1010.3 0.0
24/05:00am 26.8 31.6 24.5 87 1.6 ESE 7 9 4 5 1010.2 1010.1 0.0
24/04:30am 26.5 31.0 24.0 86 1.7 E 7 9 4 5 1010.0 1009.9 0.0
24/04:00am 26.5 31.0 24.0 86 1.7 E 7 9 4 5 1009.9 1009.8 0.0
24/03:30am 26.7 31.2 24.0 85 1.9 E 7 9 4 5 1009.9 1009.8 0.0
24/03:00am 26.9 31.2 24.2 85 1.9 ENE 9 13 5 7 1009.9 1009.8 0.0
24/02:30am 27.1 30.5 24.0 83 2.1 ENE 13 15 7 8 1010.0 1009.9 0.0
24/02:00am 27.1 30.5 24.0 83 2.1 NE 13 17 7 9 1010.3 1010.2 0.0
24/01:30am 27.1 30.4 23.8 82 2.3 ENE 13 17 7 9 1010.6 1010.5 0.0
24/01:00am 27.0 30.4 24.1 84 2.0 ENE 13 15 7 8 1010.9 1010.8 0.0
24/12:30am 26.7 30.2 23.6 83 2.1 ENE 11 15 6 8 1011.1 1011.0 0.0
24/12:00am 26.6 30.2 23.7 84 2.0 ENE 11 13 6 7 1011.1 1011.0 0.0
 
Date/Time
CST
Temp
°C
App
Temp
°C
Dew
Point
°C
Rel
Hum
%
Delta-T
°C
Wind Press
QNH
hPa
Press
MSL
hPa
Rain since
9am
mm
Dir  Spd
km/h
Gust
km/h
Spd
kts
Gust
kts
23/11:30pm 26.6 30.3 23.3 82 2.3 ENE 9 13 5 7 1011.2 1011.1 0.0
23/11:00pm 27.0 30.6 23.7 82 2.3 ENE 11 15 6 8 1011.3 1011.2 0.0
23/10:30pm 27.2 30.8 23.7 81 2.4 NE 11 13 6 7 1011.1 1011.0 0.0
23/10:00pm 27.3 30.4 23.5 80 2.6 NE 13 15 7 8 1010.7 1010.6 0.0
23/09:30pm 27.5 30.7 23.7 80 2.6 NE 13 17 7 9 1010.4 1010.3 0.0
23/09:00pm 27.7 30.6 23.9 80 2.6 NE 15 20 8 11 1010.0 1009.9 0.0
23/08:30pm 27.7 31.0 23.9 80 2.6 NNE 13 17 7 9 1009.5 1009.4 0.0
23/08:00pm 27.7 30.5 23.7 79 2.8 NE 15 17 8 9 1009.0 1008.9 0.0
23/07:30pm 28.0 32.0 24.4 81 2.5 NNE 11 15 6 8 1008.7 1008.6 0.0
23/07:00pm 27.7 31.3 23.7 79 2.8 NNE 11 13 6 7 1008.5 1008.4 0.0
23/06:30pm 28.4 31.7 23.8 76 3.2 NNE 13 15 7 8 1008.2 1008.1 0.0
23/06:00pm 29.4 32.8 24.0 72 3.7 NNE 13 17 7 9 1008.0 1007.9 0.0
23/05:30pm 30.1 33.7 24.3 71 4.0 N 13 17 7 9 1007.9 1007.8 0.0
23/05:00pm 30.5 33.7 24.4 70 4.3 N 15 17 8 9 1007.8 1007.7 0.0
23/04:30pm 31.1 34.8 25.2 71 4.2 N 15 19 8 10 1007.6 1007.5 0.0
23/04:00pm 31.2 34.3 24.8 69 4.5 N 17 20 9 11 1007.9 1007.8 0.0
23/03:30pm 31.7 34.7 25.3 69 4.5 NNE 19 22 10 12 1008.1 1008.0 0.0

Other Formats:

Comma delimited format used in spreadsheet applications
http://www.bom.gov.au/fwo/IDD60801/IDD60801.94147.axf

JavaScript Object Notation format (JSON) in row-major order
http://www.bom.gov.au/fwo/IDD60801/IDD60801.94147.json